createdAt,value
2018-09-23T00:00:09.821Z,15
2018-09-23T00:00:59.887Z,15
2018-09-23T00:01:50.265Z,15
2018-09-23T00:02:40.031Z,15
2018-09-23T00:03:30.092Z,15.1
2018-09-23T00:04:20.151Z,15
2018-09-23T00:05:10.218Z,14.9
2018-09-23T00:06:00.000Z,15
2018-09-23T00:06:50.394Z,15
2018-09-23T00:07:40.675Z,15
2018-09-23T00:08:30.714Z,15
2018-09-23T00:09:20.241Z,15
2018-09-23T00:10:10.875Z,15
2018-09-23T00:11:00.366Z,14.9
2018-09-23T00:11:51.016Z,14.9
2018-09-23T00:12:40.780Z,14.9
2018-09-23T00:13:30.841Z,14.9
2018-09-23T00:14:20.910Z,14.9
2018-09-23T00:15:11.021Z,14.9
2018-09-23T00:16:01.018Z,14.9
2018-09-23T00:16:51.081Z,14.9
2018-09-23T00:17:41.150Z,14.9
2018-09-23T00:18:31.243Z,14.9
2018-09-23T00:19:21.295Z,14.9
2018-09-23T00:20:11.057Z,14.9
2018-09-23T00:21:01.454Z,15
2018-09-23T00:21:51.453Z,14.9
2018-09-23T00:22:41.572Z,14.9
2018-09-23T00:23:31.604Z,14.9
2018-09-23T00:24:21.374Z,14.9
2018-09-23T00:25:11.440Z,15
2018-09-23T00:26:01.790Z,14.9
2018-09-23T00:26:51.877Z,14.9
2018-09-23T00:27:42.215Z,15
2018-09-23T00:28:31.988Z,14.9
2018-09-23T00:29:21.745Z,15
2018-09-23T00:30:11.530Z,14.9
2018-09-23T00:31:02.225Z,14.9
2018-09-23T00:31:51.932Z,15
2018-09-23T00:32:42.285Z,15
2018-09-23T00:33:32.064Z,15
2018-09-23T00:34:22.137Z,15
2018-09-23T00:35:12.505Z,15
2018-09-23T00:36:02.867Z,15
2018-09-23T00:36:52.050Z,15
2018-09-23T00:55:57.550Z,14.9
2018-09-23T00:56:47.538Z,15
2018-09-23T00:57:37.880Z,15
2018-09-23T00:58:27.980Z,15
2018-09-23T00:59:18.031Z,15
2018-09-23T01:00:08.072Z,15
2018-09-23T01:00:58.419Z,15
2018-09-23T01:01:48.206Z,15
2018-09-23T01:02:38.260Z,15
2018-09-23T01:03:28.024Z,15
2018-09-23T01:04:18.364Z,15
2018-09-23T01:05:08.422Z,15
2018-09-23T01:05:58.700Z,15
2018-09-23T01:06:48.805Z,14.9
2018-09-23T01:07:38.624Z,14.9
2018-09-23T01:08:28.697Z,14.9
2018-09-23T01:09:18.739Z,15
2018-09-23T01:10:08.822Z,15
2018-09-23T01:10:59.017Z,14.9
2018-09-23T01:11:48.613Z,14.9
2018-09-23T01:12:39.129Z,14.9
2018-09-23T01:13:29.092Z,14.9
2018-09-23T01:14:18.834Z,14.9
2018-09-23T01:15:09.169Z,14.9
2018-09-23T01:15:58.679Z,14.9
2018-09-23T01:16:49.912Z,14.9
2018-09-23T01:17:39.386Z,14.9
2018-09-23T01:18:29.146Z,14.9
2018-09-23T01:19:19.499Z,14.9
2018-09-23T01:20:09.554Z,14.9
2018-09-23T01:20:59.599Z,14.9
2018-09-23T01:21:49.411Z,14.9
2018-09-23T01:22:39.748Z,14.9
2018-09-23T01:23:29.544Z,14.9
2018-09-23T01:24:19.888Z,14.9
2018-09-23T01:25:09.712Z,14.9
2018-09-23T01:26:00.017Z,14.9
2018-09-23T01:26:49.790Z,14.8
2018-09-23T01:27:40.138Z,14.8
2018-09-23T01:28:30.193Z,14.8
2018-09-23T01:29:20.253Z,14.8
2018-09-23T01:30:10.326Z,14.8
2018-09-23T01:31:00.397Z,14.8
2018-09-23T01:31:50.451Z,14.8
2018-09-23T01:32:40.228Z,14.8
2018-09-23T01:33:30.570Z,14.8
2018-09-23T01:34:20.645Z,14.8
2018-09-23T01:35:10.700Z,14.8
2018-09-23T01:36:00.785Z,14.8
2018-09-23T01:36:50.552Z,14.8
2018-09-23T01:37:40.940Z,14.8
2018-09-23T01:38:30.668Z,14.8
2018-09-23T01:39:21.025Z,14.8
2018-09-23T01:40:10.786Z,14.8
2018-09-23T01:41:00.860Z,14.7
2018-09-23T01:41:51.460Z,14.7
2018-09-23T01:42:41.565Z,14.7
2018-09-23T01:43:31.046Z,14.7
2018-09-23T01:44:21.393Z,14.7
2018-09-23T01:45:11.467Z,14.7
2018-09-23T01:46:01.523Z,14.7
2018-09-23T01:46:51.592Z,14.7
2018-09-23T01:47:41.662Z,14.7
2018-09-23T01:48:31.739Z,14.7
2018-09-23T01:49:21.795Z,14.7
2018-09-23T01:50:11.837Z,14.6
2018-09-23T01:51:01.330Z,14.6
2018-09-23T01:51:51.964Z,14.6
2018-09-23T01:52:42.340Z,14.6
2018-09-23T01:53:32.327Z,14.6
2018-09-23T01:54:22.161Z,14.6
2018-09-23T01:55:12.217Z,14.6
2018-09-23T01:56:02.273Z,14.6
2018-09-23T01:56:51.769Z,14.6
2018-09-23T01:57:42.454Z,14.6
2018-09-23T01:58:32.582Z,14.6
2018-09-23T01:59:22.248Z,14.6
2018-09-23T02:00:12.604Z,14.6
2018-09-23T02:01:02.371Z,14.6
2018-09-23T02:01:52.731Z,14.6
2018-09-23T02:02:42.496Z,14.6
2018-09-23T02:03:32.273Z,14.6
2018-09-23T02:04:22.653Z,14.5
2018-09-23T02:05:12.691Z,14.5
2018-09-23T02:06:03.066Z,14.5
2018-09-23T02:06:52.815Z,14.5
2018-09-23T02:07:43.416Z,14.5
2018-09-23T02:08:33.238Z,14.5
2018-09-23T02:09:23.003Z,14.5
2018-09-23T02:10:13.348Z,14.4
2018-09-23T02:11:03.418Z,14.4
2018-09-23T02:11:53.473Z,14.4
2018-09-23T02:12:43.600Z,14.4
2018-09-23T02:13:33.323Z,14.4
2018-09-23T02:14:23.098Z,14.4
2018-09-23T02:15:13.740Z,14.4
2018-09-23T02:16:03.783Z,14.4
2018-09-23T02:16:53.845Z,14.4
2018-09-23T02:17:43.911Z,14.4
2018-09-23T02:18:33.703Z,14.4
2018-09-23T02:19:24.091Z,14.4
2018-09-23T02:20:14.125Z,14.4
2018-09-23T02:21:03.998Z,14.4
2018-09-23T02:21:53.950Z,14.4
2018-09-23T02:22:44.008Z,14.4
2018-09-23T02:23:34.602Z,14.3
2018-09-23T02:24:24.134Z,14.4
2018-09-23T02:25:14.204Z,14.3
2018-09-23T02:26:04.567Z,14.3
2018-09-23T02:26:54.324Z,14.3
2018-09-23T02:27:44.400Z,14.3
2018-09-23T02:28:34.445Z,14.3
2018-09-23T02:29:24.535Z,14.3
2018-09-23T02:30:14.877Z,14.3
2018-09-23T02:31:04.932Z,14.3
2018-09-23T02:31:54.992Z,14.3
2018-09-23T02:32:45.075Z,14.3
2018-09-23T02:33:34.825Z,14.3
2018-09-23T02:34:25.451Z,14.2
2018-09-23T02:35:15.231Z,14.2
2018-09-23T02:36:05.318Z,14.2
2018-09-23T02:36:55.389Z,14.2
2018-09-23T02:37:45.162Z,14.1
2018-09-23T02:38:35.219Z,14.1
2018-09-23T02:39:25.575Z,14.1
2018-09-23T02:40:15.927Z,14.1
2018-09-23T02:41:05.123Z,14.1
2018-09-23T02:41:55.751Z,14.1
2018-09-23T02:42:45.558Z,14
2018-09-23T02:43:35.879Z,14
2018-09-23T02:44:25.931Z,14
2018-09-23T02:45:16.038Z,13.9
2018-09-23T02:46:06.061Z,13.9
2018-09-23T02:46:55.840Z,13.9
2018-09-23T02:47:46.188Z,13.9
2018-09-23T02:48:36.240Z,13.9
2018-09-23T02:49:26.325Z,13.9
2018-09-23T02:50:16.371Z,13.8
2018-09-23T02:51:06.435Z,13.8
2018-09-23T02:51:56.511Z,13.8
2018-09-23T02:52:46.275Z,13.8
2018-09-23T02:53:36.878Z,13.8
2018-09-23T02:54:26.753Z,13.8
2018-09-23T02:55:16.783Z,13.7
2018-09-23T02:56:06.528Z,13.7
2018-09-23T02:56:56.888Z,13.7
2018-09-23T02:57:46.660Z,13.7
2018-09-23T02:58:37.000Z,13.6
2018-09-23T02:59:27.068Z,13.6
2018-09-23T03:00:17.135Z,13.6
2018-09-23T03:01:07.190Z,13.6
2018-09-23T03:01:56.969Z,13.6
2018-09-23T03:02:47.027Z,13.6
2018-09-23T03:03:37.405Z,13.5
2018-09-23T03:04:27.154Z,13.5
2018-09-23T03:05:17.220Z,13.5
2018-09-23T03:06:07.301Z,13.5
2018-09-23T03:06:57.646Z,13.5
2018-09-23T03:07:47.695Z,13.4
2018-09-23T03:08:37.750Z,13.4
2018-09-23T03:09:27.817Z,13.4
2018-09-23T03:10:17.600Z,13.4
2018-09-23T03:11:07.957Z,13.4
2018-09-23T03:11:57.729Z,13.4
2018-09-23T03:12:48.079Z,13.3
2018-09-23T03:13:38.129Z,13.3
2018-09-23T03:14:28.164Z,13.3
2018-09-23T03:15:18.282Z,13.3
2018-09-23T03:16:08.315Z,13.3
2018-09-23T03:16:58.417Z,13.3
2018-09-23T03:17:48.190Z,13.3
2018-09-23T03:18:38.244Z,13.3
2018-09-23T03:19:28.590Z,13.3
2018-09-23T03:20:18.363Z,13.2
2018-09-23T03:21:08.736Z,13.2
2018-09-23T03:21:58.811Z,13.2
2018-09-23T03:22:48.554Z,13.2
2018-09-23T03:23:38.619Z,13.2
2018-09-23T03:24:29.216Z,13.2
2018-09-23T03:25:19.095Z,13.1
2018-09-23T03:26:09.099Z,13.1
2018-09-23T03:26:58.848Z,13.1
2018-09-23T03:27:49.226Z,13.1
2018-09-23T03:28:39.283Z,13.1
2018-09-23T03:29:29.360Z,13.1
2018-09-23T03:30:19.700Z,13.1
2018-09-23T03:31:09.537Z,13
2018-09-23T03:31:59.323Z,13
2018-09-23T03:32:49.605Z,13
2018-09-23T03:33:39.660Z,13
2018-09-23T03:34:29.716Z,13
2018-09-23T03:35:20.075Z,12.9
2018-09-23T03:36:10.091Z,12.9
2018-09-23T03:36:59.320Z,12.9
2018-09-23T03:37:49.683Z,12.9
2018-09-23T03:38:40.032Z,12.9
2018-09-23T03:39:29.805Z,12.9
2018-09-23T03:40:20.160Z,12.9
2018-09-23T03:41:09.940Z,12.9
2018-09-23T03:42:00.282Z,12.9
2018-09-23T03:42:50.349Z,12.9
2018-09-23T03:43:40.412Z,12.9
2018-09-23T03:44:30.180Z,12.9
2018-09-23T03:45:20.517Z,12.8
2018-09-23T03:46:10.030Z,12.8
2018-09-23T03:47:00.088Z,12.8
2018-09-23T03:47:50.719Z,12.8
2018-09-23T03:48:40.488Z,12.8
2018-09-23T03:49:30.852Z,12.8
2018-09-23T03:50:20.875Z,12.8
2018-09-23T03:51:10.972Z,12.8
2018-09-23T03:52:01.025Z,12.8
2018-09-23T03:52:51.095Z,12.8
2018-09-23T03:53:40.875Z,12.8
2018-09-23T03:54:31.226Z,12.8
2018-09-23T03:55:21.280Z,12.7
2018-09-23T03:56:11.342Z,12.7
2018-09-23T03:57:01.409Z,12.7
2018-09-23T03:57:50.984Z,12.7
2018-09-23T03:58:41.540Z,12.6
2018-09-23T03:59:31.595Z,12.6
2018-09-23T04:00:21.659Z,12.6
2018-09-23T04:01:11.719Z,12.6
2018-09-23T04:02:01.207Z,12.6
2018-09-23T04:02:51.869Z,12.6
2018-09-23T04:03:41.329Z,12.6
2018-09-23T04:04:31.412Z,12.6
2018-09-23T04:05:22.060Z,12.6
2018-09-23T04:06:11.809Z,12.5
2018-09-23T04:07:02.193Z,12.5
2018-09-23T04:07:52.236Z,12.5
2018-09-23T04:08:42.046Z,12.5
2018-09-23T04:09:32.083Z,12.5
2018-09-23T04:10:22.439Z,12.4
2018-09-23T04:11:12.191Z,12.4
2018-09-23T04:12:02.521Z,12.4
2018-09-23T04:12:52.601Z,12.4
2018-09-23T04:13:42.660Z,12.4
2018-09-23T04:14:32.732Z,12.4
2018-09-23T04:15:22.499Z,12.4
2018-09-23T04:16:12.859Z,12.4
2018-09-23T04:17:02.922Z,12.3
2018-09-23T04:17:52.969Z,12.3
2018-09-23T04:18:43.032Z,12.3
2018-09-23T04:19:33.116Z,12.3
2018-09-23T04:20:22.884Z,12.3
2018-09-23T04:21:13.481Z,12.3
2018-09-23T04:22:03.293Z,12.3
2018-09-23T04:22:53.353Z,12.3
2018-09-23T04:23:43.399Z,12.2
2018-09-23T04:24:33.200Z,12.2
2018-09-23T04:25:23.548Z,12.2
2018-09-23T04:26:13.614Z,12.2
2018-09-23T04:27:03.705Z,12.2
2018-09-23T04:27:53.717Z,12.2
2018-09-23T04:28:43.800Z,12.2
2018-09-23T04:29:33.865Z,12.1
2018-09-23T04:30:23.413Z,12.1
2018-09-23T04:31:14.006Z,12.1
2018-09-23T04:32:04.060Z,12.1
2018-09-23T04:32:54.115Z,12.1
2018-09-23T04:33:44.192Z,12.1
2018-09-23T04:34:34.220Z,12.1
2018-09-23T04:35:24.318Z,12.1
2018-09-23T04:36:14.355Z,12.1
2018-09-23T04:37:04.419Z,12.1
2018-09-23T04:37:53.911Z,12.1
2018-09-23T04:38:44.259Z,12.1
2018-09-23T04:39:34.036Z,12.1
2018-09-23T04:40:24.710Z,12.1
2018-09-23T04:41:14.437Z,12.1
2018-09-23T04:42:04.782Z,12.1
2018-09-23T04:42:54.577Z,12.1
2018-09-23T04:43:44.936Z,12.1
2018-09-23T04:44:34.967Z,12.1
2018-09-23T04:45:24.759Z,12.1
2018-09-23T04:46:15.101Z,12.1
2018-09-23T04:47:05.189Z,12.1
2018-09-23T04:47:55.515Z,12.1
2018-09-23T04:48:45.067Z,12.1
2018-09-23T04:49:35.076Z,12.1
2018-09-23T04:50:25.445Z,12.1
2018-09-23T04:51:15.489Z,12.1
2018-09-23T04:52:05.549Z,12.1
2018-09-23T04:52:56.474Z,12.1
2018-09-23T04:53:45.384Z,12.1
2018-09-23T04:54:35.458Z,12.1
2018-09-23T04:55:25.551Z,12.1
2018-09-23T04:56:15.907Z,12.2
2018-09-23T04:57:05.927Z,12.2
2018-09-23T04:57:55.692Z,12.2
2018-09-23T04:58:46.303Z,12.2
2018-09-23T04:59:36.134Z,12.2
2018-09-23T05:00:26.160Z,12.3
2018-09-23T05:01:16.233Z,12.3
2018-09-23T05:02:06.019Z,12.3
2018-09-23T05:02:56.360Z,12.3
2018-09-23T05:03:46.427Z,12.3
2018-09-23T05:04:36.189Z,12.3
2018-09-23T05:05:26.547Z,12.4
2018-09-23T05:06:16.324Z,12.4
2018-09-23T05:07:06.665Z,12.5
2018-09-23T05:24:53.104Z,16.1
2018-09-23T05:25:42.861Z,16.4
2018-09-23T05:26:32.920Z,16.7
2018-09-23T05:28:13.324Z,17.3
2018-09-23T05:29:03.382Z,17.5
2018-09-23T05:29:53.696Z,17.8
2018-09-23T05:30:43.500Z,18.1
2018-09-23T05:31:33.585Z,18.3
2018-09-23T05:32:23.635Z,18.6
2018-09-23T05:33:13.685Z,18.9
2018-09-23T05:34:03.747Z,19.2
2018-09-23T05:34:53.808Z,19.4
2018-09-23T05:35:43.880Z,19.8
2018-09-23T05:36:33.935Z,20.1
2018-09-23T05:37:24.013Z,20.3
2018-09-23T05:38:13.777Z,20.6
2018-09-23T05:39:03.838Z,20.9
2018-09-23T05:39:54.182Z,21.3
2018-09-23T05:40:44.259Z,21.6
2018-09-23T05:41:34.037Z,21.9
2018-09-23T05:42:24.372Z,22.2
2018-09-23T05:43:14.469Z,22.5
2018-09-23T05:44:04.821Z,22.8
2018-09-23T05:44:54.002Z,23.1
2018-09-23T05:45:44.612Z,23.4
2018-09-23T05:46:34.404Z,23.8
2018-09-23T05:47:24.758Z,24.1
2018-09-23T05:48:14.802Z,24.4
2018-09-23T05:49:04.874Z,24.7
2018-09-23T05:49:54.930Z,25.1
2018-09-23T05:50:45.001Z,25.4
2018-09-23T05:51:35.324Z,25.7
2018-09-23T05:52:25.149Z,26.1
2018-09-23T05:53:15.788Z,26.3
2018-09-23T05:54:05.269Z,26.6
2018-09-23T05:54:55.052Z,26.9
2018-09-23T05:55:45.396Z,27.3
2018-09-23T05:56:35.113Z,27.6
2018-09-23T05:57:25.499Z,27.9
2018-09-23T05:58:15.594Z,28.2
2018-09-23T05:59:05.076Z,28.5
2018-09-23T05:59:55.423Z,28.8
2018-09-23T06:00:45.761Z,29.2
2018-09-23T06:01:35.823Z,29.5
2018-09-23T06:02:26.132Z,29.9
2018-09-23T06:03:16.389Z,30.3
2018-09-23T06:04:06.014Z,30.6
2018-09-23T06:04:55.788Z,30.9
2018-09-23T06:05:46.177Z,31.3
2018-09-23T06:06:36.248Z,31.6
2018-09-23T06:07:26.538Z,32
2018-09-23T06:08:16.321Z,32.4
2018-09-23T06:09:06.104Z,32.8
2018-09-23T06:09:56.158Z,33.1
2018-09-23T06:10:46.495Z,33.5
2018-09-23T06:11:36.300Z,33.9
2018-09-23T06:12:26.371Z,34.3
2018-09-23T06:13:16.705Z,34.7
2018-09-23T06:14:06.785Z,35.1
2018-09-23T06:14:56.825Z,35.5
2018-09-23T06:15:46.885Z,35.9
2018-09-23T06:16:36.667Z,36.3
2018-09-23T06:17:27.022Z,36.7
2018-09-23T06:18:17.189Z,37.1
2018-09-23T06:19:06.904Z,37.5
2018-09-23T06:19:56.917Z,37.9
2018-09-23T06:20:46.984Z,38.3
2018-09-23T06:21:37.315Z,38.7
2018-09-23T06:22:27.380Z,39.1
2018-09-23T06:23:17.447Z,39.5
2018-09-23T06:24:07.523Z,40
2018-09-23T06:24:57.304Z,40.4
2018-09-23T06:25:47.701Z,40.9
2018-09-23T06:26:37.710Z,41.4
2018-09-23T06:27:27.482Z,41.8
2018-09-23T06:28:17.824Z,42.3
2018-09-23T06:29:07.632Z,42.7
2018-09-23T06:29:57.952Z,43.1
2018-09-23T06:30:48.045Z,43.6
2018-09-23T06:31:38.089Z,44
2018-09-23T06:32:28.448Z,44.4
2018-09-23T06:33:18.206Z,44.9
2018-09-23T06:34:08.631Z,45.3
2018-09-23T06:34:58.339Z,45.8
2018-09-23T06:35:48.391Z,46.2
2018-09-23T06:36:38.524Z,46.6
2018-09-23T06:37:28.560Z,47.1
2018-09-23T06:38:18.309Z,47.5
2018-09-23T06:39:08.651Z,47.9
2018-09-23T06:39:58.444Z,48.3
2018-09-23T06:40:48.781Z,48.7
2018-09-23T06:41:38.846Z,49.1
2018-09-23T06:42:28.722Z,49.5
2018-09-23T06:43:19.004Z,49.9
2018-09-23T06:44:09.057Z,50.3
2018-09-23T06:44:58.844Z,50.8
2018-09-23T06:45:49.424Z,51.1
2018-09-23T06:46:39.223Z,51.5
2018-09-23T06:47:29.521Z,51.9
2018-09-23T06:48:19.377Z,52.3
2018-09-23T06:49:09.433Z,52.8
2018-09-23T06:49:59.460Z,53.2
2018-09-23T06:50:49.536Z,53.6
2018-09-23T06:51:39.595Z,54
2018-09-23T06:52:29.428Z,54.4
2018-09-23T06:53:19.725Z,54.8
2018-09-23T06:54:09.831Z,55.1
2018-09-23T06:54:59.848Z,55.6
2018-09-23T06:55:49.915Z,56
2018-09-23T06:56:40.028Z,57.5
2018-09-23T06:57:29.773Z,57.6
2018-09-23T06:58:20.100Z,56.1
2018-09-23T06:59:09.881Z,53.8
2018-09-23T06:59:59.977Z,50.2
2018-09-23T07:00:49.748Z,47.9
2018-09-23T07:01:40.380Z,46.6
2018-09-23T07:02:30.392Z,45.8
2018-09-23T07:03:20.470Z,45.3
2018-09-23T07:04:10.252Z,45
2018-09-23T07:05:01.155Z,45
2018-09-23T07:05:50.670Z,45.1
2018-09-23T07:06:40.722Z,45.4
2018-09-23T07:07:30.809Z,45.9
2018-09-23T07:08:20.861Z,46.4
2018-09-23T07:09:10.639Z,47.1
2018-09-23T07:10:00.982Z,47.7
2018-09-23T07:10:51.045Z,48.3
2018-09-23T07:11:41.105Z,48.9
2018-09-23T07:12:30.890Z,49.4
2018-09-23T07:13:21.256Z,50.1
2018-09-23T07:14:11.317Z,50.7
2018-09-23T07:15:01.361Z,51.4
2018-09-23T07:16:41.487Z,52.6
2018-09-23T07:17:31.572Z,53.3
2018-09-23T07:18:21.625Z,54
2018-09-23T07:19:11.687Z,54.6
2018-09-23T07:20:01.476Z,55.3
2018-09-23T07:20:51.800Z,55.9
2018-09-23T07:21:41.908Z,57.7
2018-09-23T07:22:31.672Z,58.2
2018-09-23T07:23:21.454Z,56.6
2018-09-23T07:24:12.915Z,55.3
2018-09-23T07:25:01.574Z,53.1
2018-09-23T07:25:52.223Z,51.3
2018-09-23T07:26:42.270Z,50.1
2018-09-23T07:27:32.042Z,49.4
2018-09-23T07:28:22.365Z,49.1
2018-09-23T07:29:12.439Z,49.2
2018-09-23T07:30:02.607Z,49.5
2018-09-23T07:30:52.590Z,50.1
2018-09-23T07:31:42.345Z,50.8
2018-09-23T07:32:32.714Z,51.6
2018-09-23T07:34:12.865Z,53.3
2018-09-23T07:35:02.893Z,54.1
2018-09-23T07:35:52.942Z,54.9
2018-09-23T07:36:43.360Z,55.8
2018-09-23T07:38:23.243Z,58.9
2018-09-23T07:39:13.456Z,58.6
2018-09-23T07:40:04.146Z,58.2
2018-09-23T07:40:53.332Z,56.9
2018-09-23T07:41:43.389Z,55.1
2018-09-23T07:42:33.450Z,53.6
2018-09-23T07:43:23.279Z,53.3
2018-09-23T07:44:13.581Z,53.3
2018-09-23T07:45:03.377Z,53.4
2018-09-23T07:45:53.719Z,53.8
2018-09-23T07:46:43.491Z,54.4
2018-09-23T07:47:33.834Z,55.4
2018-09-23T07:48:23.922Z,57.5
2018-09-23T07:49:13.484Z,58.3
2018-09-23T07:50:54.084Z,58.4
2018-09-23T07:51:43.663Z,57.4
2018-09-23T07:52:34.207Z,56
2018-09-23T07:53:24.300Z,55.1
2018-09-23T07:54:14.072Z,55.2
2018-09-23T07:55:04.431Z,55.8
2018-09-23T07:55:54.176Z,56.5
2018-09-23T07:56:44.541Z,56.9
2018-09-23T07:57:34.605Z,57.1
2018-09-23T07:58:24.377Z,57
2018-09-23T07:59:14.487Z,56.7
2018-09-23T08:00:04.503Z,56.5
2018-09-23T08:00:54.858Z,56.6
2018-09-23T08:01:44.335Z,56.8
2018-09-23T08:02:34.982Z,57.1
2018-09-23T08:03:25.464Z,57.3
2018-09-23T08:04:14.542Z,57.4
2018-09-23T08:05:04.879Z,57.5
2018-09-23T08:05:55.230Z,57.5
2018-09-23T08:06:45.012Z,57.6
2018-09-23T08:07:35.086Z,57.6
2018-09-23T08:08:25.416Z,57.7
2018-09-23T08:09:15.497Z,57.8
2018-09-23T08:10:05.569Z,57.9
2018-09-23T08:10:55.863Z,58.1
2018-09-23T08:11:45.389Z,58.2
2018-09-23T08:12:36.636Z,58.3
2018-09-23T08:13:26.797Z,58.4
2018-09-23T08:15:07.366Z,58.6
2018-09-23T08:15:55.719Z,58.8
2018-09-23T08:16:46.074Z,58.8
2018-09-23T08:17:36.376Z,58.9
2018-09-23T08:18:26.208Z,58.9
2018-09-23T08:19:16.205Z,59.1
2018-09-23T08:20:06.918Z,59.3
2018-09-23T08:20:56.824Z,59.4
2018-09-23T08:21:46.443Z,59.6
2018-09-23T08:22:36.234Z,59.8
2018-09-23T08:23:26.573Z,59.9
2018-09-23T08:24:16.651Z,59.9
2018-09-23T08:25:06.828Z,59.8
2018-09-23T08:25:56.793Z,59.8
2018-09-23T08:26:46.530Z,59.8
2018-09-23T08:27:36.589Z,59.8
2018-09-23T08:28:26.960Z,59.8
2018-09-23T08:29:16.566Z,59.8
2018-09-23T08:30:07.068Z,59.9
2018-09-23T08:30:56.850Z,59.9
2018-09-23T08:31:47.241Z,60.1
2018-09-23T08:32:36.985Z,60.3
2018-09-23T08:33:27.103Z,60.4
2018-09-23T08:34:17.118Z,60.6
2018-09-23T08:35:07.448Z,60.8
2018-09-23T08:35:57.517Z,60.9
2018-09-23T08:36:47.318Z,61.1
2018-09-23T08:37:37.373Z,61.2
2018-09-23T08:38:28.035Z,61.3
2018-09-23T08:39:17.791Z,61.5
2018-09-23T08:40:08.357Z,61.7
2018-09-23T08:40:57.894Z,61.9
2018-09-23T08:41:47.973Z,62.2
2018-09-23T08:42:37.743Z,62.4
2018-09-23T08:43:28.157Z,62.6
2018-09-23T08:44:18.177Z,62.8
2018-09-23T08:45:08.218Z,62.9
2018-09-23T08:45:58.010Z,63.1
2018-09-23T08:46:48.419Z,63.1
2018-09-23T08:47:38.476Z,62.9
2018-09-23T08:48:29.040Z,62.6
2018-09-23T08:49:18.576Z,62.3
2018-09-23T08:50:08.654Z,62.3
2018-09-23T08:50:58.689Z,62.4
2018-09-23T08:51:48.707Z,62.6
2018-09-23T08:52:39.061Z,62.9
2018-09-23T08:53:28.583Z,63
2018-09-23T08:54:19.169Z,63.1
2018-09-23T08:55:08.692Z,63.2
2018-09-23T08:55:59.047Z,63.3
2018-09-23T08:56:49.183Z,63.4
2018-09-23T08:57:38.968Z,63.6
2018-09-23T08:58:29.292Z,63.9
2018-09-23T08:59:19.571Z,64.1
2018-09-23T09:00:09.362Z,64.3
2018-09-23T09:00:59.416Z,64.4
2018-09-23T09:01:49.492Z,64.6
2018-09-23T09:02:39.569Z,64.8
2018-09-23T09:03:29.452Z,64.9
2018-09-23T09:04:19.399Z,65
2018-09-23T09:05:09.757Z,65.2
2018-09-23T09:05:59.826Z,65.3
2018-09-23T09:06:49.889Z,65.4
2018-09-23T09:07:39.942Z,65.5
2018-09-23T09:08:29.999Z,65.5
2018-09-23T09:09:20.081Z,65.6
2018-09-23T09:10:09.854Z,65.6
2018-09-23T09:10:59.960Z,65.7
2018-09-23T09:11:50.537Z,65.8
2018-09-23T09:12:40.064Z,65.9
2018-09-23T09:13:30.402Z,66
2018-09-23T09:14:19.921Z,66.1
2018-09-23T09:15:10.234Z,66.3
2018-09-23T09:16:00.319Z,66.5
2018-09-23T09:16:50.348Z,66.6
2018-09-23T09:17:40.690Z,66.6
2018-09-23T09:18:30.892Z,66.6
2018-09-23T09:19:20.555Z,66.6
2018-09-23T09:20:10.896Z,66.7
2018-09-23T09:21:00.955Z,66.8
2018-09-23T09:21:51.020Z,66.9
2018-09-23T09:22:41.073Z,67.1
2018-09-23T09:39:37.839Z,69.4
2018-09-23T09:40:27.609Z,69.4
2018-09-23T09:41:17.293Z,69.5
2018-09-23T09:42:07.354Z,69.6
2018-09-23T09:42:57.659Z,69.7
2018-09-23T09:43:47.744Z,69.8
2018-09-23T09:44:37.806Z,69.8
2018-09-23T09:45:27.312Z,69.9
2018-09-23T09:46:17.692Z,69.9
2018-09-23T09:47:07.723Z,69.9
2018-09-23T09:47:57.764Z,69.9
2018-09-23T09:48:48.200Z,69.9
2018-09-23T09:49:38.192Z,69.9
2018-09-23T09:50:28.256Z,70
2018-09-23T09:51:18.382Z,70
2018-09-23T09:52:08.387Z,69.9
2018-09-23T09:52:58.177Z,69.9
2018-09-23T09:53:48.267Z,69.9
2018-09-23T09:54:38.594Z,69.8
2018-09-23T09:55:29.103Z,69.6
2018-09-23T09:56:18.759Z,69.6
2018-09-23T09:57:08.766Z,69.6
2018-09-23T09:57:58.841Z,69.7
2018-09-23T09:58:48.340Z,69.8
2018-09-23T09:59:38.956Z,69.8
2018-09-23T10:00:28.459Z,69.9
2018-09-23T10:01:19.120Z,69.9
2018-09-23T10:02:08.876Z,70
2018-09-23T10:02:59.216Z,70.1
2018-09-23T10:03:49.342Z,70.3
2018-09-23T10:04:39.346Z,70.4
2018-09-23T10:05:29.438Z,70.5
2018-09-23T10:06:19.195Z,70.6
2018-09-23T10:07:09.271Z,70.7
2018-09-23T10:07:59.326Z,70.8
2018-09-23T10:08:49.453Z,70.9
2018-09-23T10:09:39.776Z,70.9
2018-09-23T10:10:29.538Z,71
2018-09-23T10:11:19.339Z,71.1
2018-09-23T10:12:09.702Z,71.1
2018-09-23T10:12:59.995Z,71.1
2018-09-23T10:13:49.848Z,71.1
2018-09-23T10:14:39.853Z,71.2
2018-09-23T10:15:29.610Z,71.3
2018-09-23T10:16:20.242Z,71.4
2018-09-23T10:17:10.297Z,71.6
2018-09-23T10:18:00.372Z,71.7
2018-09-23T10:18:50.422Z,71.8
2018-09-23T10:19:40.264Z,71.8
2018-09-23T10:20:30.570Z,71.9
2018-09-23T10:21:20.622Z,71.9
2018-09-23T10:22:10.717Z,71.9
2018-09-23T10:23:01.073Z,72
2018-09-23T10:23:50.741Z,72
2018-09-23T10:24:40.894Z,72.1
2018-09-23T10:25:30.961Z,72.1
2018-09-23T10:26:20.999Z,72.1
2018-09-23T10:27:10.788Z,72.2
2018-09-23T10:28:00.866Z,72.3
2018-09-23T10:28:50.935Z,72.3
2018-09-23T10:29:40.999Z,72.3
2018-09-23T10:30:31.586Z,72.4
2018-09-23T10:31:21.607Z,72.5
2018-09-23T10:32:11.466Z,72.6
2018-09-23T10:33:01.287Z,72.6
2018-09-23T10:33:51.611Z,72.8
2018-09-23T10:34:41.194Z,72.8
2018-09-23T10:35:31.169Z,72.9
2018-09-23T10:36:21.816Z,72.9
2018-09-23T10:37:11.851Z,73
2018-09-23T10:38:01.933Z,73
2018-09-23T10:38:51.415Z,73.1
2018-09-23T10:39:41.791Z,73.1
2018-09-23T10:40:32.116Z,73.1
2018-09-23T10:41:22.102Z,73.1
2018-09-23T10:42:11.679Z,73.1
2018-09-23T10:43:02.301Z,73.2
2018-09-23T10:43:52.362Z,73.1
2018-09-23T10:44:42.429Z,73.2
2018-09-23T10:45:32.488Z,73.1
2018-09-23T10:46:22.562Z,73.1
2018-09-23T10:47:12.710Z,73.1
2018-09-23T10:48:02.489Z,73.1
2018-09-23T10:48:52.469Z,73.2
2018-09-23T10:49:43.147Z,73.2
2018-09-23T10:50:32.912Z,73.1
2018-09-23T10:51:22.714Z,73.1
2018-09-23T10:52:12.997Z,73.1
2018-09-23T10:53:03.025Z,73.1
2018-09-23T10:53:53.120Z,73.1
2018-09-23T10:54:42.905Z,73.2
2018-09-23T10:55:33.167Z,73.2
2018-09-23T10:56:23.325Z,73.1
2018-09-23T10:57:13.392Z,73.1
2018-09-23T10:58:03.494Z,73.1
2018-09-23T10:58:53.254Z,73.1
2018-09-23T10:59:43.582Z,73.1
2018-09-23T11:00:33.647Z,73.2
2018-09-23T11:01:23.409Z,73.2
2018-09-23T11:02:13.489Z,73.3
2018-09-23T11:03:03.828Z,73.3
2018-09-23T11:03:53.660Z,73.4
2018-09-23T11:04:43.196Z,73.4
2018-09-23T11:05:33.772Z,73.4
2018-09-23T11:06:23.833Z,73.4
2018-09-23T11:07:14.220Z,73.4
2018-09-23T11:08:03.631Z,73.4
2018-09-23T11:08:54.293Z,73.4
2018-09-23T11:09:44.317Z,73.5
2018-09-23T11:10:34.138Z,73.5
2018-09-23T11:11:24.524Z,73.6
2018-09-23T11:12:14.525Z,73.6
2018-09-23T11:13:04.585Z,73.6
2018-09-23T11:13:54.651Z,73.6
2018-09-23T11:14:44.428Z,73.6
2018-09-23T11:15:34.491Z,73.6
2018-09-23T11:16:24.563Z,73.6
2018-09-23T11:17:14.923Z,73.6
2018-09-23T11:18:04.980Z,73.6
2018-09-23T11:18:55.035Z,73.6
2018-09-23T11:19:45.108Z,73.6
2018-09-23T11:20:35.150Z,73.6
2018-09-23T11:21:24.945Z,73.6
2018-09-23T11:22:15.286Z,73.6
2018-09-23T11:23:05.116Z,73.6
2018-09-23T11:23:55.472Z,73.6
2018-09-23T11:24:46.006Z,73.6
2018-09-23T11:25:34.683Z,73.6
2018-09-23T11:26:25.940Z,73.6
2018-09-23T11:27:15.682Z,73.6
2018-09-23T11:28:05.457Z,73.6
2018-09-23T11:28:55.810Z,73.5
2018-09-23T11:29:45.860Z,73.4
2018-09-23T11:30:36.273Z,73.3
2018-09-23T11:31:25.997Z,73.1
2018-09-23T11:32:15.487Z,73
2018-09-23T11:33:06.163Z,72.9
2018-09-23T11:33:56.224Z,72.9
2018-09-23T11:34:46.240Z,72.8
2018-09-23T11:35:36.324Z,72.8
2018-09-23T11:36:26.394Z,72.8
2018-09-23T11:37:15.879Z,72.8
2018-09-23T11:38:06.237Z,72.8
2018-09-23T11:38:56.294Z,72.8
2018-09-23T11:39:46.637Z,72.7
2018-09-23T11:40:36.714Z,72.6
2018-09-23T11:41:26.581Z,72.6
2018-09-23T11:42:16.828Z,72.6
2018-09-23T11:43:06.634Z,72.6
2018-09-23T11:43:56.703Z,72.7
2018-09-23T11:44:46.729Z,72.8
2018-09-23T11:45:36.811Z,72.8
2018-09-23T11:46:26.875Z,72.8
2018-09-23T11:47:16.928Z,72.8
2018-09-23T11:48:06.985Z,72.7
2018-09-23T11:48:57.327Z,72.7
2018-09-23T11:49:47.413Z,72.7
2018-09-23T11:50:37.619Z,72.6
2018-09-23T11:51:27.615Z,72.6
2018-09-23T11:52:17.404Z,72.6
2018-09-23T11:53:07.661Z,72.5
2018-09-23T11:53:57.710Z,72.4
2018-09-23T11:54:47.520Z,72.4
2018-09-23T11:55:37.871Z,72.3
2018-09-23T11:56:27.636Z,72.3
2018-09-23T11:57:17.963Z,72.3
2018-09-23T11:58:08.040Z,72.3
2018-09-23T11:58:58.539Z,72.3
2018-09-23T11:59:48.202Z,72.3
2018-09-23T12:00:37.958Z,72.2
2018-09-23T12:01:28.332Z,72.2
2018-09-23T12:02:18.896Z,72.2
2018-09-23T12:03:08.248Z,72.2
2018-09-23T12:03:58.510Z,72.2
2018-09-23T12:04:48.665Z,72.2
2018-09-23T12:05:38.360Z,72.2